createdAt,value
2023-02-25T00:02:04.437Z,3.05
2023-02-25T00:04:31.392Z,3.14
2023-02-25T00:06:57.902Z,3.10
2023-02-25T00:09:24.316Z,3.10
2023-02-25T00:11:50.813Z,3.11
2023-02-25T00:14:17.201Z,3.20
2023-02-25T00:16:43.649Z,3.11
2023-02-25T00:19:10.537Z,3.10
2023-02-25T00:21:38.057Z,3.13
2023-02-25T00:24:15.975Z,3.02
2023-02-25T00:26:43.653Z,2.96
2023-02-25T00:29:10.176Z,3.00
2023-02-25T00:31:36.682Z,3.05
2023-02-25T00:34:03.453Z,3.04
2023-02-25T00:36:32.132Z,3.03
2023-02-25T00:38:58.600Z,3.03
2023-02-25T00:41:28.197Z,3.07
2023-02-25T00:43:57.649Z,3.00
2023-02-25T00:46:24.700Z,2.95
2023-02-25T00:48:52.348Z,2.99
2023-02-25T00:51:21.821Z,2.95
2023-02-25T00:53:50.051Z,2.95
2023-02-25T00:56:17.849Z,2.97
2023-02-25T00:58:46.420Z,2.98
2023-02-25T01:01:23.823Z,3.05
2023-02-25T01:03:52.011Z,3.02
2023-02-25T01:06:18.857Z,3.01
2023-02-25T01:08:45.452Z,2.93
2023-02-25T01:11:27.460Z,2.92
2023-02-25T01:13:55.516Z,2.91
2023-02-25T01:16:24.887Z,2.90
2023-02-25T01:18:53.454Z,2.99
2023-02-25T01:21:42.727Z,2.96
2023-02-25T01:24:17.347Z,2.94
2023-02-25T01:26:45.529Z,2.85
2023-02-25T01:29:40.279Z,2.79
2023-02-25T01:32:11.952Z,2.78
2023-02-25T01:34:39.926Z,2.80
2023-02-25T01:37:08.150Z,2.79
2023-02-25T01:39:40.156Z,2.81
2023-02-25T01:42:14.369Z,2.78
2023-02-25T01:45:09.101Z,2.88
2023-02-25T01:47:39.264Z,2.79
2023-02-25T01:50:07.136Z,2.87
2023-02-25T01:52:33.830Z,2.83
2023-02-25T01:55:00.275Z,2.77
2023-02-25T01:57:28.052Z,2.84
2023-02-25T01:59:55.219Z,2.87
2023-02-25T02:02:26.089Z,2.82
2023-02-25T02:04:54.395Z,2.82
2023-02-25T02:07:23.269Z,2.84
2023-02-25T02:09:59.848Z,2.82
2023-02-25T02:12:31.352Z,2.78
2023-02-25T02:15:00.055Z,2.80
2023-02-25T02:17:37.903Z,2.77
2023-02-25T02:20:23.090Z,2.82
2023-02-25T02:23:04.931Z,2.76
2023-02-25T02:25:52.953Z,2.80
2023-02-25T02:28:50.657Z,2.83
2023-02-25T02:31:20.251Z,2.82
2023-02-25T02:34:16.651Z,2.86
2023-02-25T02:37:18.567Z,2.87
2023-02-25T02:40:14.262Z,2.85
2023-02-25T02:43:08.666Z,2.88
2023-02-25T02:45:55.530Z,2.90
2023-02-25T02:48:27.850Z,2.90
2023-02-25T02:50:59.899Z,2.84
2023-02-25T02:53:36.624Z,2.87
2023-02-25T02:56:07.291Z,2.93
2023-02-25T02:58:45.819Z,2.91
2023-02-25T03:01:16.046Z,2.89
2023-02-25T03:03:48.736Z,2.87
2023-02-25T03:06:19.855Z,2.89
2023-02-25T03:08:56.727Z,2.85
2023-02-25T03:11:23.556Z,2.88
2023-02-25T03:13:51.858Z,2.84
2023-02-25T03:16:31.870Z,2.88
2023-02-25T03:19:12.298Z,2.83
2023-02-25T03:21:43.663Z,2.78
2023-02-25T03:24:22.231Z,2.73
2023-02-25T03:26:51.555Z,2.78
2023-02-25T03:29:21.925Z,2.77
2023-02-25T03:31:56.927Z,2.80
2023-02-25T03:34:35.989Z,2.70
2023-02-25T03:37:09.279Z,2.69
2023-02-25T03:39:40.953Z,2.67
2023-02-25T03:42:14.074Z,2.64
2023-02-25T03:44:50.079Z,2.65
2023-02-25T03:47:19.367Z,2.63
2023-02-25T03:50:05.099Z,2.58
2023-02-25T03:52:32.302Z,2.72
2023-02-25T03:55:05.906Z,2.66
2023-02-25T03:57:41.211Z,2.63
2023-02-25T04:00:19.145Z,2.66
2023-02-25T04:02:46.888Z,2.60
2023-02-25T04:05:14.697Z,2.59
2023-02-25T04:07:41.397Z,2.62
2023-02-25T04:10:09.681Z,2.69
2023-02-25T04:12:36.111Z,2.72
2023-02-25T04:15:04.008Z,2.66
2023-02-25T04:17:30.523Z,2.64
2023-02-25T04:19:57.033Z,2.72
2023-02-25T04:22:24.120Z,2.71
2023-02-25T04:24:50.569Z,2.70
2023-02-25T04:27:17.324Z,2.69
2023-02-25T04:29:44.520Z,2.69
2023-02-25T04:32:12.001Z,2.67
2023-02-25T04:34:38.494Z,2.70
2023-02-25T04:37:05.277Z,2.75
2023-02-25T04:39:32.958Z,2.70
2023-02-25T04:41:59.372Z,2.75
2023-02-25T04:44:26.140Z,2.65
2023-02-25T04:46:52.602Z,2.71
2023-02-25T04:49:21.364Z,2.64
2023-02-25T04:51:49.463Z,2.60
2023-02-25T04:54:15.906Z,2.58
2023-02-25T04:56:42.291Z,2.49
2023-02-25T04:59:11.256Z,2.51
2023-02-25T05:01:38.569Z,2.48
2023-02-25T05:04:05.331Z,2.47
2023-02-25T05:06:32.005Z,2.46
2023-02-25T05:08:58.849Z,2.41
2023-02-25T05:11:27.358Z,2.44
2023-02-25T05:13:57.067Z,2.51
2023-02-25T05:16:24.144Z,2.49
2023-02-25T05:18:50.769Z,2.52
2023-02-25T05:21:20.999Z,2.48
2023-02-25T05:23:49.115Z,2.46
2023-02-25T05:26:18.115Z,2.41
2023-02-25T05:28:44.581Z,2.40
2023-02-25T05:31:12.608Z,2.36
2023-02-25T05:33:40.053Z,2.31
2023-02-25T05:36:08.203Z,2.35
2023-02-25T05:38:35.275Z,2.41
2023-02-25T05:41:05.909Z,2.45
2023-02-25T05:43:33.012Z,2.34
2023-02-25T05:46:03.136Z,2.27
2023-02-25T05:48:31.659Z,2.33
2023-02-25T05:51:12.997Z,2.34
2023-02-25T05:53:39.742Z,2.34
2023-02-25T05:56:08.320Z,2.39
2023-02-25T05:58:35.331Z,2.44
2023-02-25T06:01:16.859Z,2.30
2023-02-25T06:03:45.282Z,2.36
2023-02-25T06:06:14.755Z,2.35
2023-02-25T06:08:44.167Z,2.33
2023-02-25T06:11:14.231Z,2.36
2023-02-25T06:13:41.888Z,2.37
2023-02-25T06:16:08.433Z,2.41
2023-02-25T06:18:37.077Z,2.39
2023-02-25T06:21:09.770Z,2.30
2023-02-25T06:23:38.433Z,2.30
2023-02-25T06:26:07.763Z,2.44
2023-02-25T06:28:38.126Z,2.42
2023-02-25T06:31:08.758Z,2.42
2023-02-25T06:33:35.698Z,2.38
2023-02-25T06:36:02.649Z,2.35
2023-02-25T06:38:29.207Z,2.31
2023-02-25T06:40:55.730Z,2.34
2023-02-25T06:43:22.150Z,2.24
2023-02-25T06:45:48.641Z,2.32
2023-02-25T06:48:15.083Z,2.25
2023-02-25T06:50:41.885Z,2.30
2023-02-25T06:53:09.471Z,2.39
2023-02-25T06:55:39.169Z,2.29
2023-02-25T06:58:05.845Z,2.34
2023-02-25T07:00:33.208Z,2.37
2023-02-25T07:03:02.951Z,2.32
2023-02-25T07:05:29.461Z,2.32
2023-02-25T07:07:55.866Z,2.34
2023-02-25T07:10:22.285Z,2.26
2023-02-25T07:12:48.686Z,2.32
2023-02-25T07:15:15.191Z,2.26
2023-02-25T07:17:41.775Z,2.18
2023-02-25T07:20:08.897Z,2.18
2023-02-25T07:22:35.366Z,2.23
2023-02-25T07:25:02.230Z,2.19
2023-02-25T07:27:28.833Z,2.27
2023-02-25T07:29:55.755Z,2.32
2023-02-25T07:32:24.780Z,2.34
2023-02-25T07:34:51.392Z,2.42
2023-02-25T07:37:17.816Z,2.47
2023-02-25T07:39:45.723Z,2.43
2023-02-25T07:42:13.807Z,2.57
2023-02-25T07:44:40.297Z,2.44
2023-02-25T07:47:06.968Z,2.49
2023-02-25T07:49:33.531Z,2.53
2023-02-25T07:52:00.694Z,2.53
2023-02-25T07:54:27.206Z,2.37
2023-02-25T07:56:53.838Z,2.45
2023-02-25T07:59:20.319Z,2.32
2023-02-25T08:01:46.890Z,2.40
2023-02-25T08:04:13.419Z,2.46
2023-02-25T08:06:41.240Z,2.36
2023-02-25T08:09:11.044Z,2.42
2023-02-25T08:11:38.570Z,2.42
2023-02-25T08:14:06.006Z,2.54
2023-02-25T08:16:33.642Z,2.50
2023-02-25T08:19:00.287Z,2.64
2023-02-25T08:21:30.740Z,2.69
2023-02-25T08:23:57.215Z,2.75
2023-02-25T08:26:25.482Z,2.95
2023-02-25T08:28:51.917Z,3.04
2023-02-25T08:31:19.738Z,3.01
2023-02-25T08:33:49.541Z,2.92
2023-02-25T08:36:24.809Z,3.00
2023-02-25T08:38:51.630Z,2.95
2023-02-25T08:41:19.857Z,2.96
2023-02-25T08:43:54.658Z,2.73
2023-02-25T08:46:27.217Z,2.60
2023-02-25T08:48:54.658Z,2.63
2023-02-25T08:51:34.048Z,2.70
2023-02-25T08:54:06.602Z,2.69
2023-02-25T08:56:35.265Z,2.71
2023-02-25T08:59:02.005Z,2.74
2023-02-25T09:01:44.344Z,2.77
2023-02-25T09:04:22.862Z,2.80
2023-02-25T09:06:51.853Z,2.90
2023-02-25T09:09:20.140Z,2.81
2023-02-25T09:11:48.672Z,2.78
2023-02-25T09:14:15.200Z,2.78
2023-02-25T09:16:41.601Z,2.78
2023-02-25T09:19:08.175Z,2.85
2023-02-25T09:21:36.117Z,2.75
2023-02-25T09:24:03.068Z,2.73
2023-02-25T09:26:29.578Z,2.79
2023-02-25T09:28:56.002Z,2.75
2023-02-25T09:31:22.981Z,2.74
2023-02-25T09:33:49.706Z,2.87
2023-02-25T09:36:18.753Z,2.76
2023-02-25T09:38:46.867Z,2.73
2023-02-25T09:41:39.621Z,2.74
2023-02-25T09:44:15.441Z,2.84
2023-02-25T09:46:57.050Z,2.86
2023-02-25T09:49:48.081Z,2.88
2023-02-25T09:52:39.771Z,2.84
2023-02-25T09:55:08.156Z,3.02
2023-02-25T09:57:41.429Z,3.02
2023-02-25T10:00:18.591Z,2.99
2023-02-25T10:03:03.566Z,2.99
2023-02-25T10:05:52.816Z,2.95
2023-02-25T10:08:28.757Z,3.01
2023-02-25T10:11:13.672Z,2.86
2023-02-25T10:14:00.364Z,2.66
2023-02-25T10:16:54.752Z,2.68
2023-02-25T10:19:34.344Z,2.53
2023-02-25T10:22:26.014Z,2.63
2023-02-25T10:25:00.671Z,2.59
2023-02-25T10:27:41.397Z,2.61
2023-02-25T10:30:44.713Z,2.64
2023-02-25T10:33:18.325Z,2.56
2023-02-25T10:35:44.750Z,2.63
2023-02-25T10:38:12.707Z,2.58
2023-02-25T10:40:40.556Z,2.59
2023-02-25T10:43:20.115Z,2.72
2023-02-25T10:45:49.570Z,2.70
2023-02-25T10:48:23.716Z,2.66
2023-02-25T10:51:05.778Z,2.84
2023-02-25T10:53:34.367Z,2.69
2023-02-25T10:56:02.823Z,2.81
2023-02-25T10:58:35.488Z,2.78
2023-02-25T11:01:23.427Z,2.77
2023-02-25T11:04:17.752Z,2.66
2023-02-25T11:06:45.050Z,2.69
2023-02-25T11:09:35.427Z,2.75
2023-02-25T11:12:07.590Z,2.78
2023-02-25T11:14:39.669Z,2.63
2023-02-25T11:17:14.511Z,2.74
2023-02-25T11:19:47.031Z,2.68
2023-02-25T11:22:20.216Z,2.74
2023-02-25T11:24:59.421Z,2.78
2023-02-25T11:27:30.726Z,2.92
2023-02-25T11:30:04.971Z,2.94
2023-02-25T11:32:33.532Z,2.98
2023-02-25T11:35:11.296Z,3.09
2023-02-25T11:37:45.396Z,3.10
2023-02-25T11:40:33.786Z,3.11
2023-02-25T11:43:06.122Z,3.13
2023-02-25T11:45:35.502Z,3.07
2023-02-25T11:48:05.479Z,3.27
2023-02-25T11:50:51.584Z,3.23
2023-02-25T11:53:27.180Z,3.40
2023-02-25T11:56:18.315Z,3.49
2023-02-25T11:58:52.159Z,3.36
2023-02-25T12:01:42.295Z,3.44
2023-02-25T12:04:27.017Z,3.44
2023-02-25T12:07:42.991Z,3.50
2023-02-25T12:10:51.628Z,3.46
2023-02-25T12:13:46.671Z,3.40
2023-02-25T12:16:43.928Z,3.59
2023-02-25T12:19:44.579Z,3.59
2023-02-25T12:22:27.170Z,3.64
2023-02-25T12:25:14.982Z,3.72
2023-02-25T12:27:44.456Z,3.67
2023-02-25T12:30:33.785Z,3.68
2023-02-25T12:33:14.688Z,3.57
2023-02-25T12:35:50.115Z,3.44
2023-02-25T12:39:03.162Z,3.55
2023-02-25T12:41:38.616Z,3.63
2023-02-25T12:44:33.442Z,3.55
2023-02-25T12:47:18.894Z,3.57
2023-02-25T12:50:01.467Z,3.38
2023-02-25T12:52:57.805Z,3.38
2023-02-25T12:55:31.136Z,3.48
2023-02-25T12:58:16.529Z,3.58
2023-02-25T13:00:57.250Z,3.69
2023-02-25T13:03:41.498Z,3.52
2023-02-25T13:06:39.107Z,3.55
2023-02-25T13:09:23.664Z,3.56
2023-02-25T13:12:17.753Z,3.51
2023-02-25T13:14:57.483Z,3.43
2023-02-25T13:17:56.980Z,3.36
2023-02-25T13:20:36.659Z,3.30
2023-02-25T13:23:29.953Z,3.37
2023-02-25T13:26:08.605Z,3.30
2023-02-25T13:29:02.341Z,3.30
2023-02-25T13:31:51.433Z,3.27
2023-02-25T13:34:30.014Z,3.21
2023-02-25T13:37:10.322Z,3.20
2023-02-25T13:39:50.065Z,3.07
2023-02-25T13:42:46.034Z,3.20
2023-02-25T13:45:33.577Z,3.33
2023-02-25T13:48:23.072Z,3.59
2023-02-25T13:51:26.246Z,3.87
2023-02-25T13:54:46.080Z,3.94
2023-02-25T13:57:55.009Z,4.32
2023-02-25T14:00:37.832Z,4.24
2023-02-25T14:03:47.961Z,3.94
2023-02-25T14:06:25.894Z,3.96
2023-02-25T14:09:19.894Z,4.11
2023-02-25T14:11:57.746Z,4.02
2023-02-25T14:14:55.386Z,3.84
2023-02-25T14:17:37.997Z,3.77
2023-02-25T14:20:20.958Z,3.83
2023-02-25T14:22:56.883Z,3.83
2023-02-25T14:25:50.604Z,3.92
2023-02-25T14:28:51.567Z,4.15
2023-02-25T14:31:25.805Z,4.09
2023-02-25T14:34:09.950Z,4.02
2023-02-25T14:36:49.841Z,3.87
2023-02-25T14:39:21.729Z,3.86
2023-02-25T14:42:05.811Z,3.98
2023-02-25T14:44:53.537Z,3.94
2023-02-25T14:47:34.002Z,3.81
2023-02-25T14:50:10.404Z,3.79
2023-02-25T14:53:16.373Z,3.61
2023-02-25T14:56:01.945Z,3.49
2023-02-25T14:59:11.997Z,3.27
2023-02-25T15:02:00.346Z,3.32
2023-02-25T15:04:52.378Z,3.37
2023-02-25T15:07:40.746Z,3.38
2023-02-25T15:10:29.841Z,3.60
2023-02-25T15:12:59.285Z,3.73
2023-02-25T15:15:35.092Z,3.69
2023-02-25T15:18:28.153Z,3.62
2023-02-25T15:20:55.803Z,3.37
2023-02-25T15:23:42.637Z,3.25
2023-02-25T15:26:23.654Z,3.29
2023-02-25T15:28:52.264Z,3.19
2023-02-25T15:31:29.860Z,3.25
2023-02-25T15:34:28.403Z,3.12
2023-02-25T15:37:18.561Z,3.08
2023-02-25T15:39:44.973Z,3.03
2023-02-25T15:42:12.108Z,3.04
2023-02-25T15:44:41.119Z,3.06
2023-02-25T15:47:22.430Z,2.97
2023-02-25T15:49:49.998Z,3.00
2023-02-25T15:52:57.123Z,3.03
2023-02-25T15:55:44.031Z,2.99
2023-02-25T15:58:25.792Z,2.93
2023-02-25T16:00:53.804Z,2.87
2023-02-25T16:03:34.768Z,2.80
2023-02-25T16:06:23.164Z,2.72
2023-02-25T16:09:03.392Z,2.83
2023-02-25T16:11:38.150Z,2.81
2023-02-25T16:14:12.280Z,2.86
2023-02-25T16:16:49.226Z,2.81
2023-02-25T16:19:18.903Z,2.69
2023-02-25T16:21:48.372Z,2.68
2023-02-25T16:24:16.044Z,2.64
2023-02-25T16:27:00.161Z,2.64
2023-02-25T16:29:48.446Z,2.63
2023-02-25T16:32:36.236Z,2.70
2023-02-25T16:35:13.726Z,2.62
2023-02-25T16:37:58.389Z,2.68
2023-02-25T16:40:29.778Z,2.70
2023-02-25T16:42:58.701Z,2.66
2023-02-25T16:45:32.021Z,2.54
2023-02-25T16:48:06.977Z,2.49
2023-02-25T16:50:36.117Z,2.41
2023-02-25T16:53:04.058Z,2.40
2023-02-25T16:55:39.189Z,2.35
2023-02-25T16:58:20.376Z,2.45
2023-02-25T17:00:53.179Z,2.32
2023-02-25T17:03:21.324Z,2.27
2023-02-25T17:06:14.872Z,2.26
2023-02-25T17:08:46.365Z,2.07
2023-02-25T17:11:17.027Z,2.08
2023-02-25T17:13:45.333Z,1.97
2023-02-25T17:16:41.037Z,2.02
2023-02-25T17:19:09.921Z,1.93
2023-02-25T17:21:39.318Z,1.98
2023-02-25T17:24:11.719Z,1.82
2023-02-25T17:26:43.804Z,1.70
2023-02-25T17:29:12.679Z,1.62
2023-02-25T17:31:52.112Z,1.52
2023-02-25T17:34:27.187Z,1.69
2023-02-25T17:36:55.620Z,1.60
2023-02-25T17:39:22.583Z,1.50
2023-02-25T17:41:49.720Z,1.40
2023-02-25T17:44:44.625Z,1.31
2023-02-25T17:47:18.939Z,1.37
2023-02-25T17:49:45.576Z,1.41
2023-02-25T17:52:22.718Z,1.29
2023-02-25T17:54:58.413Z,1.27
2023-02-25T17:57:28.393Z,1.29
2023-02-25T18:00:00.381Z,1.20
2023-02-25T18:02:36.839Z,1.15
2023-02-25T18:05:12.818Z,1.15
2023-02-25T18:07:43.775Z,1.18
2023-02-25T18:10:25.737Z,1.10
2023-02-25T18:12:54.277Z,1.06
2023-02-25T18:15:24.089Z,1.21
2023-02-25T18:17:54.038Z,1.02
2023-02-25T18:20:32.265Z,0.77
2023-02-25T18:23:28.227Z,0.66
2023-02-25T18:26:27.129Z,0.59
2023-02-25T18:28:57.584Z,0.59
2023-02-25T18:31:24.100Z,0.59
2023-02-25T18:33:52.068Z,0.52
2023-02-25T18:36:27.581Z,0.52
2023-02-25T18:39:04.914Z,0.68
2023-02-25T18:41:33.706Z,0.52
2023-02-25T18:44:01.480Z,0.58
2023-02-25T18:46:28.787Z,0.45
2023-02-25T18:48:55.292Z,0.41
2023-02-25T18:51:21.693Z,0.46
2023-02-25T18:53:48.176Z,0.42
2023-02-25T18:56:17.964Z,0.42
2023-02-25T18:58:45.291Z,0.44
2023-02-25T19:01:23.962Z,0.35
2023-02-25T19:03:51.339Z,0.37
2023-02-25T19:06:18.397Z,0.36
2023-02-25T19:08:45.125Z,0.35
2023-02-25T19:11:22.547Z,0.39
2023-02-25T19:13:49.212Z,0.39
2023-02-25T19:16:16.920Z,0.40
2023-02-25T19:18:43.438Z,0.43
2023-02-25T19:21:14.298Z,0.31
2023-02-25T19:23:40.818Z,0.27
2023-02-25T19:26:07.961Z,0.31
2023-02-25T19:28:34.448Z,0.35
2023-02-25T19:31:02.051Z,0.34
2023-02-25T19:33:29.141Z,0.29
2023-02-25T19:35:56.088Z,0.28
2023-02-25T19:38:22.516Z,0.29
2023-02-25T19:40:49.423Z,0.31
2023-02-25T19:43:17.406Z,0.32
2023-02-25T19:45:44.004Z,0.31
2023-02-25T19:48:10.851Z,0.44
2023-02-25T19:50:40.624Z,0.50
2023-02-25T19:53:07.068Z,0.54
2023-02-25T19:55:34.015Z,0.46
2023-02-25T19:58:00.533Z,0.40
2023-02-25T20:00:27.084Z,0.26
2023-02-25T20:02:54.549Z,0.29
2023-02-25T20:05:22.517Z,0.25
2023-02-25T20:07:49.514Z,0.28
2023-02-25T20:10:16.302Z,0.26
2023-02-25T20:12:44.993Z,0.15
2023-02-25T20:15:13.623Z,0.11
2023-02-25T20:17:42.044Z,0.18
2023-02-25T20:20:10.941Z,0.15
2023-02-25T20:22:38.946Z,0.22
2023-02-25T20:25:06.927Z,0.04
2023-02-25T20:27:36.937Z,-0.02
2023-02-25T20:30:06.779Z,0.04
2023-02-25T20:32:33.841Z,-0.08
2023-02-25T20:35:00.572Z,0.01
2023-02-25T20:37:33.813Z,-0.03
2023-02-25T20:40:00.527Z,-0.08
2023-02-25T20:42:30.471Z,-0.21
2023-02-25T20:44:59.080Z,-0.15
2023-02-25T20:47:31.180Z,-0.22
2023-02-25T20:49:58.529Z,-0.24
2023-02-25T20:52:29.237Z,-0.23
2023-02-25T20:54:56.277Z,-0.27
2023-02-25T20:57:24.626Z,-0.23
2023-02-25T20:59:51.420Z,-0.15
2023-02-25T21:02:18.235Z,-0.28
2023-02-25T21:04:45.319Z,-0.40
2023-02-25T21:07:12.071Z,-0.43
2023-02-25T21:09:38.900Z,-0.36
2023-02-25T21:12:06.299Z,-0.44
2023-02-25T21:14:32.827Z,-0.47
2023-02-25T21:17:00.114Z,-0.52
2023-02-25T21:19:28.156Z,-0.50
2023-02-25T21:21:55.341Z,-0.58
2023-02-25T21:24:21.922Z,-0.62
2023-02-25T21:26:48.310Z,-0.65
2023-02-25T21:29:14.947Z,-0.69
2023-02-25T21:31:42.007Z,-0.60
2023-02-25T21:34:11.621Z,-0.63
2023-02-25T21:36:38.858Z,-0.64
2023-02-25T21:39:06.922Z,-0.70
2023-02-25T21:41:33.809Z,-0.60
2023-02-25T21:44:00.357Z,-0.80
2023-02-25T21:46:28.648Z,-0.77
2023-02-25T21:48:56.190Z,-0.68
2023-02-25T21:51:24.963Z,-0.82
2023-02-25T21:54:00.702Z,-0.80
2023-02-25T21:56:28.617Z,-0.84
2023-02-25T21:58:57.633Z,-0.88
2023-02-25T22:01:29.894Z,-0.94
2023-02-25T22:03:56.514Z,-0.81
2023-02-25T22:06:24.520Z,-0.94
2023-02-25T22:08:52.298Z,-0.90
2023-02-25T22:11:22.371Z,-0.93
2023-02-25T22:13:50.526Z,-0.91
2023-02-25T22:16:17.261Z,-0.81
2023-02-25T22:18:44.437Z,-0.89
2023-02-25T22:21:25.803Z,-0.95
2023-02-25T22:23:54.714Z,-0.97
2023-02-25T22:26:25.088Z,-0.97
2023-02-25T22:28:56.464Z,-1.00
2023-02-25T22:31:24.191Z,-1.00
2023-02-25T22:33:51.128Z,-1.03
2023-02-25T22:36:19.195Z,-1.13
2023-02-25T22:38:47.698Z,-1.05
2023-02-25T22:41:17.379Z,-1.09
2023-02-25T22:43:44.210Z,-1.02
2023-02-25T22:46:16.578Z,-0.97
2023-02-25T22:48:45.770Z,-1.02
2023-02-25T22:51:13.786Z,-1.13
2023-02-25T22:53:41.013Z,-1.16
2023-02-25T22:56:09.732Z,-1.18
2023-02-25T22:58:38.708Z,-1.14
2023-02-25T23:01:05.447Z,-1.15
2023-02-25T23:03:31.900Z,-1.21
2023-02-25T23:05:58.776Z,-1.21
2023-02-25T23:08:25.268Z,-1.32
2023-02-25T23:10:51.757Z,-1.21
2023-02-25T23:13:46.665Z,-1.21
2023-02-25T23:16:25.437Z,-1.13
2023-02-25T23:18:52.140Z,-1.28
2023-02-25T23:21:20.198Z,-1.26
2023-02-25T23:23:48.582Z,-1.17
2023-02-25T23:26:17.286Z,-1.31
2023-02-25T23:28:44.073Z,-1.30
2023-02-25T23:31:21.378Z,-1.32
2023-02-25T23:33:48.367Z,-1.34
2023-02-25T23:36:15.683Z,-1.38
2023-02-25T23:38:42.113Z,-1.45
2023-02-25T23:41:08.539Z,-1.46
2023-02-25T23:43:35.293Z,-1.58
2023-02-25T23:46:05.621Z,-1.54
2023-02-25T23:48:32.637Z,-1.58
2023-02-25T23:51:06.786Z,-1.61
2023-02-25T23:53:33.929Z,-1.73
2023-02-25T23:56:06.341Z,-1.70
2023-02-25T23:58:32.919Z,-1.75
